createdAt,value
2019-05-30T00:00:08.891Z,1015.47
2019-05-30T00:00:53.789Z,1015.48
2019-05-30T00:01:52.471Z,1015.47
2019-05-30T00:02:52.450Z,1015.47
2019-05-30T00:03:52.433Z,1015.49
2019-05-30T00:04:52.413Z,1015.47
2019-05-30T00:05:52.408Z,1015.45
2019-05-30T00:06:52.370Z,1015.42
2019-05-30T00:07:52.351Z,1015.44
2019-05-30T00:08:52.332Z,1015.44
2019-05-30T00:09:52.315Z,1015.43
2019-05-30T00:10:52.302Z,1015.44
2019-05-30T00:11:52.282Z,1015.45
2019-05-30T00:12:52.261Z,1015.50
2019-05-30T00:13:52.240Z,1015.46
2019-05-30T00:14:52.219Z,1015.47
2019-05-30T00:15:52.216Z,1015.47
2019-05-30T00:16:52.177Z,1015.43
2019-05-30T00:17:52.157Z,1015.46
2019-05-30T00:18:52.137Z,1015.46
2019-05-30T00:19:52.115Z,1015.48
2019-05-30T00:20:52.098Z,1015.48
2019-05-30T00:21:52.083Z,1015.50
2019-05-30T00:22:52.060Z,1015.51
2019-05-30T00:23:52.042Z,1015.52
2019-05-30T00:24:52.026Z,1015.49
2019-05-30T00:25:52.000Z,1015.49
2019-05-30T00:26:51.976Z,1015.47
2019-05-30T00:27:51.976Z,1015.45
2019-05-30T00:28:51.944Z,1015.44
2019-05-30T00:29:51.919Z,1015.45
2019-05-30T00:30:51.898Z,1015.42
2019-05-30T00:31:51.879Z,1015.47
2019-05-30T00:32:51.861Z,1015.43
2019-05-30T00:33:51.839Z,1015.44
2019-05-30T00:34:51.820Z,1015.46
2019-05-30T00:35:51.801Z,1015.47
2019-05-30T00:36:51.781Z,1015.49
2019-05-30T00:37:51.765Z,1015.47
2019-05-30T00:38:51.741Z,1015.45
2019-05-30T00:39:51.725Z,1015.46
2019-05-30T00:40:51.702Z,1015.45
2019-05-30T00:41:51.683Z,1015.45
2019-05-30T00:42:51.741Z,1015.44
2019-05-30T00:43:51.649Z,1015.45
2019-05-30T00:44:51.632Z,1015.44
2019-05-30T00:45:51.605Z,1015.41
2019-05-30T00:46:51.584Z,1015.41
2019-05-30T00:47:51.566Z,1015.38
2019-05-30T00:48:51.591Z,1015.43
2019-05-30T00:49:51.586Z,1015.41
2019-05-30T00:50:51.510Z,1015.41
2019-05-30T00:51:51.490Z,1015.42
2019-05-30T00:52:51.472Z,1015.41
2019-05-30T00:53:51.446Z,1015.40
2019-05-30T00:54:51.426Z,1015.40
2019-05-30T00:55:51.408Z,1015.42
2019-05-30T00:56:51.387Z,1015.40
2019-05-30T00:57:51.376Z,1015.42
2019-05-30T00:58:51.351Z,1015.41
2019-05-30T00:59:51.332Z,1015.39
2019-05-30T01:00:51.327Z,1015.38
2019-05-30T01:01:51.290Z,1015.40
2019-05-30T01:02:51.297Z,1015.37
2019-05-30T01:03:51.250Z,1015.39
2019-05-30T01:04:51.230Z,1015.38
2019-05-30T01:05:51.216Z,1015.39
2019-05-30T01:06:51.191Z,1015.37
2019-05-30T01:07:51.171Z,1015.41
2019-05-30T01:08:51.166Z,1015.38
2019-05-30T01:09:51.133Z,1015.41
2019-05-30T01:10:51.110Z,1015.42
2019-05-30T01:11:51.093Z,1015.42
2019-05-30T01:12:51.072Z,1015.43
2019-05-30T01:13:51.057Z,1015.43
2019-05-30T01:14:51.034Z,1015.42
2019-05-30T01:15:51.024Z,1015.42
2019-05-30T01:16:51.002Z,1015.43
2019-05-30T01:17:50.973Z,1015.45
2019-05-30T01:18:50.977Z,1015.44
2019-05-30T01:19:50.944Z,1015.41
2019-05-30T01:20:50.917Z,1015.41
2019-05-30T01:21:50.898Z,1015.41
2019-05-30T01:22:50.875Z,1015.41
2019-05-30T01:23:50.860Z,1015.39
2019-05-30T01:24:50.851Z,1015.35
2019-05-30T01:25:50.818Z,1015.33
2019-05-30T01:26:50.826Z,1015.35
2019-05-30T01:27:50.778Z,1015.33
2019-05-30T01:28:50.759Z,1015.29
2019-05-30T01:29:50.739Z,1015.31
2019-05-30T01:30:59.542Z,1015.32
2019-05-30T01:31:50.699Z,1015.32
2019-05-30T01:32:50.687Z,1015.32
2019-05-30T01:33:50.667Z,1015.32
2019-05-30T01:34:50.639Z,1015.30
2019-05-30T01:35:50.621Z,1015.34
2019-05-30T01:36:50.603Z,1015.33
2019-05-30T01:37:50.583Z,1015.35
2019-05-30T01:38:50.565Z,1015.37
2019-05-30T01:39:50.541Z,1015.33
2019-05-30T01:40:50.522Z,1015.33
2019-05-30T01:41:50.503Z,1015.36
2019-05-30T01:42:50.482Z,1015.33
2019-05-30T01:43:50.465Z,1015.34
2019-05-30T01:44:50.449Z,1015.34
2019-05-30T01:45:50.424Z,1015.30
2019-05-30T01:46:50.405Z,1015.33
2019-05-30T01:47:50.385Z,1015.30
2019-05-30T01:48:50.365Z,1015.31
2019-05-30T01:49:50.347Z,1015.32
2019-05-30T01:50:50.326Z,1015.31
2019-05-30T01:51:50.306Z,1015.30
2019-05-30T01:52:50.286Z,1015.29
2019-05-30T01:53:50.271Z,1015.30
2019-05-30T01:54:50.245Z,1015.28
2019-05-30T01:55:50.226Z,1015.30
2019-05-30T01:56:50.208Z,1015.30
2019-05-30T01:57:50.185Z,1015.30
2019-05-30T01:58:50.168Z,1015.29
2019-05-30T01:59:50.151Z,1015.30
2019-05-30T02:00:50.129Z,1015.31
2019-05-30T02:01:50.108Z,1015.32
2019-05-30T02:02:50.087Z,1015.26
2019-05-30T02:03:50.074Z,1015.28
2019-05-30T02:04:50.049Z,1015.25
2019-05-30T02:05:50.034Z,1015.26
2019-05-30T02:06:50.009Z,1015.25
2019-05-30T02:07:49.999Z,1015.23
2019-05-30T02:08:49.970Z,1015.24
2019-05-30T02:09:49.952Z,1015.23
2019-05-30T02:10:49.936Z,1015.20
2019-05-30T02:11:49.913Z,1015.20
2019-05-30T02:12:49.892Z,1015.20
2019-05-30T02:13:49.886Z,1015.21
2019-05-30T02:14:49.857Z,1015.19
2019-05-30T02:15:49.834Z,1015.19
2019-05-30T02:16:49.818Z,1015.20
2019-05-30T02:17:49.799Z,1015.22
2019-05-30T02:18:49.774Z,1015.21
2019-05-30T02:19:49.755Z,1015.22
2019-05-30T02:20:49.735Z,1015.20
2019-05-30T02:21:49.717Z,1015.16
2019-05-30T02:22:49.703Z,1015.19
2019-05-30T02:23:49.675Z,1015.21
2019-05-30T02:24:49.658Z,1015.16
2019-05-30T02:25:49.639Z,1015.19
2019-05-30T02:26:49.614Z,1015.16
2019-05-30T02:27:49.598Z,1015.16
2019-05-30T02:28:49.578Z,1015.18
2019-05-30T02:29:49.559Z,1015.16
2019-05-30T02:30:49.539Z,1015.15
2019-05-30T02:31:49.518Z,1015.18
2019-05-30T02:32:49.515Z,1015.15
2019-05-30T02:33:49.483Z,1015.18
2019-05-30T02:34:49.458Z,1015.15
2019-05-30T02:35:49.438Z,1015.15
2019-05-30T02:36:49.427Z,1015.17
2019-05-30T02:37:49.398Z,1015.18
2019-05-30T02:38:49.380Z,1015.18
2019-05-30T02:39:49.361Z,1015.18
2019-05-30T02:40:49.340Z,1015.20
2019-05-30T02:41:49.323Z,1015.18
2019-05-30T02:42:49.301Z,1015.21
2019-05-30T02:43:49.281Z,1015.18
2019-05-30T02:44:49.262Z,1015.22
2019-05-30T02:45:49.243Z,1015.23
2019-05-30T02:46:49.225Z,1015.19
2019-05-30T02:47:49.202Z,1015.19
2019-05-30T02:48:58.728Z,1015.16
2019-05-30T02:49:49.165Z,1015.21
2019-05-30T02:50:49.143Z,1015.21
2019-05-30T02:51:49.122Z,1015.21
2019-05-30T02:52:49.115Z,1015.20
2019-05-30T02:53:49.103Z,1015.22
2019-05-30T02:54:49.074Z,1015.23
2019-05-30T02:55:49.047Z,1015.25
2019-05-30T02:56:49.037Z,1015.23
2019-05-30T02:57:49.009Z,1015.23
2019-05-30T02:58:48.990Z,1015.24
2019-05-30T02:59:48.967Z,1015.25
2019-05-30T03:00:48.947Z,1015.25
2019-05-30T03:02:00.640Z,1015.26
2019-05-30T03:02:48.909Z,1015.25
2019-05-30T03:03:48.887Z,1015.25
2019-05-30T03:04:48.874Z,1015.27
2019-05-30T03:05:48.853Z,1015.26
2019-05-30T03:06:48.829Z,1015.24
2019-05-30T03:07:48.805Z,1015.20
2019-05-30T03:08:48.788Z,1015.22
2019-05-30T03:09:48.768Z,1015.20
2019-05-30T03:10:48.748Z,1015.23
2019-05-30T03:11:48.732Z,1015.22
2019-05-30T03:12:48.721Z,1015.22
2019-05-30T03:13:48.690Z,1015.20
2019-05-30T03:14:48.693Z,1015.23
2019-05-30T03:15:48.648Z,1015.23
2019-05-30T03:16:48.629Z,1015.24
2019-05-30T03:17:48.612Z,1015.24
2019-05-30T03:18:48.589Z,1015.25
2019-05-30T03:19:48.570Z,1015.19
2019-05-30T03:20:48.551Z,1015.21
2019-05-30T03:21:48.535Z,1015.26
2019-05-30T03:22:48.512Z,1015.26
2019-05-30T03:23:48.493Z,1015.20
2019-05-30T03:24:48.472Z,1015.23
2019-05-30T03:25:48.453Z,1015.23
2019-05-30T03:26:48.439Z,1015.26
2019-05-30T03:27:48.413Z,1015.27
2019-05-30T03:28:53.101Z,1015.27
2019-05-30T03:29:48.383Z,1015.26
2019-05-30T03:30:48.358Z,1015.25
2019-05-30T03:31:48.333Z,1015.27
2019-05-30T03:33:05.158Z,1015.23
2019-05-30T03:33:48.301Z,1015.22
2019-05-30T03:34:48.281Z,1015.25
2019-05-30T03:35:48.264Z,1015.23
2019-05-30T03:36:48.252Z,1015.23
2019-05-30T03:37:48.233Z,1015.23
2019-05-30T03:38:48.196Z,1015.22
2019-05-30T03:39:48.176Z,1015.23
2019-05-30T03:40:48.156Z,1015.24
2019-05-30T03:41:48.169Z,1015.26
2019-05-30T03:42:48.125Z,1015.26
2019-05-30T03:43:48.099Z,1015.26
2019-05-30T03:44:48.077Z,1015.28
2019-05-30T03:45:48.067Z,1015.31
2019-05-30T03:46:48.036Z,1015.30
2019-05-30T03:47:48.019Z,1015.33
2019-05-30T03:48:47.998Z,1015.28
2019-05-30T03:49:47.979Z,1015.28
2019-05-30T03:50:47.962Z,1015.32
2019-05-30T03:51:47.940Z,1015.29
2019-05-30T03:52:47.928Z,1015.33
2019-05-30T03:53:47.899Z,1015.28
2019-05-30T03:54:47.881Z,1015.30
2019-05-30T03:55:47.867Z,1015.32
2019-05-30T03:56:47.854Z,1015.30
2019-05-30T03:57:47.821Z,1015.29
2019-05-30T03:58:47.809Z,1015.30
2019-05-30T03:59:47.786Z,1015.31
2019-05-30T04:00:50.947Z,1015.31
2019-05-30T04:01:47.743Z,1015.33
2019-05-30T04:02:57.348Z,1015.34
2019-05-30T04:03:47.701Z,1015.31
2019-05-30T04:04:47.687Z,1015.26
2019-05-30T04:05:47.665Z,1015.31
2019-05-30T04:06:47.646Z,1015.28
2019-05-30T04:07:47.625Z,1015.28
2019-05-30T04:08:47.612Z,1015.27
2019-05-30T04:09:47.601Z,1015.28
2019-05-30T04:10:47.574Z,1015.29
2019-05-30T04:11:47.547Z,1015.26
2019-05-30T04:12:47.528Z,1015.30
2019-05-30T04:13:47.509Z,1015.31
2019-05-30T04:14:47.487Z,1015.35
2019-05-30T04:15:47.469Z,1015.35
2019-05-30T04:16:47.447Z,1015.33
2019-05-30T04:17:47.428Z,1015.37
2019-05-30T04:18:47.427Z,1015.34
2019-05-30T04:19:47.390Z,1015.39
2019-05-30T04:20:47.374Z,1015.39
2019-05-30T04:21:47.352Z,1015.38
2019-05-30T04:22:47.339Z,1015.37
2019-05-30T04:23:47.311Z,1015.41
2019-05-30T04:24:47.290Z,1015.36
2019-05-30T04:25:47.269Z,1015.37
2019-05-30T04:26:47.249Z,1015.41
2019-05-30T04:27:47.242Z,1015.40
2019-05-30T04:28:47.217Z,1015.36
2019-05-30T04:29:47.191Z,1015.38
2019-05-30T04:30:47.181Z,1015.36
2019-05-30T04:31:47.151Z,1015.42
2019-05-30T04:32:47.132Z,1015.41
2019-05-30T04:33:47.117Z,1015.41
2019-05-30T04:34:47.092Z,1015.42
2019-05-30T04:35:47.070Z,1015.46
2019-05-30T04:36:47.053Z,1015.48
2019-05-30T04:37:47.034Z,1015.39
2019-05-30T04:38:47.013Z,1015.38
2019-05-30T04:39:47.008Z,1015.40
2019-05-30T04:40:46.977Z,1015.39
2019-05-30T04:41:46.956Z,1015.37
2019-05-30T04:42:46.946Z,1015.34
2019-05-30T04:43:46.914Z,1015.38
2019-05-30T04:44:46.921Z,1015.35
2019-05-30T04:45:46.877Z,1015.37
2019-05-30T04:46:46.860Z,1015.36
2019-05-30T04:47:46.839Z,1015.36
2019-05-30T04:48:46.820Z,1015.34
2019-05-30T04:49:46.801Z,1015.37
2019-05-30T04:50:46.781Z,1015.30
2019-05-30T04:51:46.759Z,1015.32
2019-05-30T04:52:46.745Z,1015.30
2019-05-30T04:53:46.722Z,1015.31
2019-05-30T04:54:46.700Z,1015.33
2019-05-30T04:55:46.684Z,1015.34
2019-05-30T04:56:46.656Z,1015.37
2019-05-30T04:57:46.639Z,1015.35
2019-05-30T04:58:46.623Z,1015.30
2019-05-30T04:59:46.598Z,1015.39
2019-05-30T05:00:46.580Z,1015.35
2019-05-30T05:01:46.564Z,1015.41
2019-05-30T05:02:46.539Z,1015.39
2019-05-30T05:03:47.050Z,1015.37
2019-05-30T05:04:46.507Z,1015.37
2019-05-30T05:05:46.485Z,1015.35
2019-05-30T05:06:46.462Z,1015.33
2019-05-30T05:07:46.443Z,1015.37
2019-05-30T05:08:46.422Z,1015.40
2019-05-30T05:09:46.408Z,1015.42
2019-05-30T05:10:46.399Z,1015.40
2019-05-30T05:11:46.363Z,1015.47
2019-05-30T05:12:46.343Z,1015.43
2019-05-30T05:13:46.325Z,1015.43
2019-05-30T05:14:46.303Z,1015.41
2019-05-30T05:15:46.293Z,1015.39
2019-05-30T05:16:46.271Z,1015.40
2019-05-30T05:17:46.264Z,1015.41
2019-05-30T05:18:46.228Z,1015.40
2019-05-30T05:19:46.215Z,1015.38
2019-05-30T05:20:46.192Z,1015.42
2019-05-30T05:21:46.167Z,1015.42
2019-05-30T05:22:46.149Z,1015.39
2019-05-30T05:23:46.131Z,1015.37
2019-05-30T05:24:46.108Z,1015.38
2019-05-30T05:25:59.716Z,1015.37
2019-05-30T05:26:46.074Z,1015.38
2019-05-30T05:27:46.057Z,1015.32
2019-05-30T05:28:46.032Z,1015.35
2019-05-30T05:29:46.015Z,1015.30
2019-05-30T05:30:45.993Z,1015.36
2019-05-30T05:31:45.972Z,1015.34
2019-05-30T05:32:45.956Z,1015.33
2019-05-30T05:33:56.350Z,1015.30
2019-05-30T05:34:45.913Z,1015.34
2019-05-30T05:35:45.891Z,1015.36
2019-05-30T05:36:45.872Z,1015.33
2019-05-30T05:37:45.854Z,1015.38
2019-05-30T05:38:45.830Z,1015.33
2019-05-30T05:39:45.812Z,1015.35
2019-05-30T05:40:45.792Z,1015.34
2019-05-30T05:41:45.774Z,1015.32
2019-05-30T05:42:45.760Z,1015.32
2019-05-30T05:43:45.736Z,1015.35
2019-05-30T05:44:45.723Z,1015.34
2019-05-30T05:45:45.698Z,1015.34
2019-05-30T05:46:45.673Z,1015.33
2019-05-30T05:47:45.656Z,1015.33
2019-05-30T05:48:45.637Z,1015.40
2019-05-30T05:49:45.624Z,1015.39
2019-05-30T05:50:45.604Z,1015.38
2019-05-30T05:51:45.580Z,1015.40
2019-05-30T05:52:45.557Z,1015.37
2019-05-30T05:53:45.545Z,1015.39
2019-05-30T05:54:45.518Z,1015.41
2019-05-30T05:55:45.498Z,1015.41
2019-05-30T05:56:45.478Z,1015.40
2019-05-30T05:57:45.463Z,1015.43
2019-05-30T05:58:45.440Z,1015.43
2019-05-30T05:59:45.420Z,1015.48
2019-05-30T06:00:45.401Z,1015.47
2019-05-30T06:01:45.385Z,1015.48
2019-05-30T06:02:45.364Z,1015.51
2019-05-30T06:03:45.341Z,1015.51
2019-05-30T06:04:45.325Z,1015.45
2019-05-30T06:05:53.059Z,1015.56
2019-05-30T06:06:45.291Z,1015.59
2019-05-30T06:07:45.264Z,1015.59
2019-05-30T06:08:45.244Z,1015.58
2019-05-30T06:09:45.228Z,1015.57
2019-05-30T06:10:45.204Z,1015.59
2019-05-30T06:11:45.194Z,1015.61
2019-05-30T06:12:45.167Z,1015.53
2019-05-30T06:13:45.148Z,1015.57
2019-05-30T06:14:45.138Z,1015.58
2019-05-30T06:15:45.109Z,1015.54
2019-05-30T06:16:45.096Z,1015.57
2019-05-30T06:17:45.068Z,1015.64
2019-05-30T06:18:45.054Z,1015.59
2019-05-30T06:19:46.709Z,1015.59
2019-05-30T06:20:45.022Z,1015.58
2019-05-30T06:21:53.445Z,1015.58
2019-05-30T06:22:44.975Z,1015.59
2019-05-30T06:23:46.059Z,1015.59
2019-05-30T06:24:44.931Z,1015.59
2019-05-30T06:25:44.917Z,1015.59
2019-05-30T06:26:44.895Z,1015.63
2019-05-30T06:27:44.885Z,1015.63
2019-05-30T06:28:44.864Z,1015.60
2019-05-30T06:29:44.840Z,1015.63
2019-05-30T06:30:44.813Z,1015.63
2019-05-30T06:31:44.798Z,1015.63
2019-05-30T06:32:44.778Z,1015.59
2019-05-30T06:33:44.759Z,1015.61
2019-05-30T06:34:44.733Z,1015.65
2019-05-30T06:35:44.716Z,1015.68
2019-05-30T06:36:44.703Z,1015.65
2019-05-30T06:37:44.677Z,1015.60
2019-05-30T06:38:44.659Z,1015.65
2019-05-30T06:39:44.648Z,1015.64
2019-05-30T06:40:44.627Z,1015.68
2019-05-30T06:41:44.597Z,1015.70
2019-05-30T06:42:44.582Z,1015.71
2019-05-30T06:43:44.569Z,1015.74
2019-05-30T06:44:44.544Z,1015.72
2019-05-30T06:45:44.536Z,1015.76
2019-05-30T06:46:44.502Z,1015.72
2019-05-30T06:47:44.488Z,1015.72
2019-05-30T06:48:44.465Z,1015.71
2019-05-30T06:49:44.444Z,1015.76
2019-05-30T06:50:44.423Z,1015.82
2019-05-30T06:51:44.403Z,1015.77
2019-05-30T06:52:44.391Z,1015.81
2019-05-30T06:53:44.368Z,1015.84
2019-05-30T06:54:44.353Z,1015.78
2019-05-30T06:55:44.327Z,1015.76
2019-05-30T06:56:44.903Z,1015.77
2019-05-30T06:57:44.286Z,1015.74
2019-05-30T06:58:48.730Z,1015.85
2019-05-30T06:59:44.249Z,1015.78
2019-05-30T07:00:44.248Z,1015.80
2019-05-30T07:01:44.208Z,1015.77
2019-05-30T07:02:44.237Z,1015.71
2019-05-30T07:03:44.256Z,1015.75
2019-05-30T07:04:51.686Z,1015.82
2019-05-30T07:05:44.639Z,1015.78
2019-05-30T07:06:44.336Z,1015.80
2019-05-30T07:07:44.259Z,1015.81
2019-05-30T07:08:44.072Z,1015.81
2019-05-30T07:09:44.071Z,1015.82
2019-05-30T07:10:44.035Z,1015.85
2019-05-30T07:11:44.013Z,1015.85
2019-05-30T07:12:43.995Z,1015.88
2019-05-30T07:13:43.975Z,1015.89
2019-05-30T07:14:43.955Z,1015.93
2019-05-30T07:15:43.936Z,1015.98
2019-05-30T07:16:43.922Z,1015.94
2019-05-30T07:17:43.898Z,1015.95
2019-05-30T07:18:43.884Z,1015.87
2019-05-30T07:19:43.862Z,1015.97
2019-05-30T07:20:43.846Z,1015.99
2019-05-30T07:21:43.819Z,1016.02
2019-05-30T07:22:43.806Z,1016.00
2019-05-30T07:23:43.781Z,1016.01
2019-05-30T07:24:43.770Z,1016.00
2019-05-30T07:25:43.754Z,1016.04
2019-05-30T07:26:43.729Z,1016.02
2019-05-30T07:27:43.709Z,1016.09
2019-05-30T07:28:43.698Z,1016.02
2019-05-30T07:29:43.665Z,1016.08
2019-05-30T07:30:43.650Z,1016.15
2019-05-30T07:31:43.625Z,1016.16
2019-05-30T07:32:43.605Z,1016.17
2019-05-30T07:33:43.590Z,1016.14
2019-05-30T07:34:45.860Z,1016.27
2019-05-30T07:35:43.553Z,1016.18
2019-05-30T07:36:43.530Z,1016.14
2019-05-30T07:37:46.594Z,1016.13
2019-05-30T07:38:43.492Z,1016.15
2019-05-30T07:39:43.477Z,1016.14
2019-05-30T07:40:43.453Z,1016.11
2019-05-30T07:41:43.434Z,1016.07
2019-05-30T07:42:43.416Z,1016.12
2019-05-30T07:43:43.406Z,1016.12
2019-05-30T07:44:43.374Z,1016.07
2019-05-30T07:45:48.653Z,1016.11
2019-05-30T07:46:43.336Z,1016.12
2019-05-30T07:47:43.316Z,1016.15
2019-05-30T07:48:43.298Z,1016.14
2019-05-30T07:49:43.291Z,1016.17
2019-05-30T07:50:43.261Z,1016.18
2019-05-30T07:51:43.239Z,1016.19
2019-05-30T07:52:43.230Z,1016.17
2019-05-30T07:53:43.205Z,1016.21
2019-05-30T07:54:43.194Z,1016.16
2019-05-30T07:55:43.163Z,1016.19
2019-05-30T07:56:43.149Z,1016.21
2019-05-30T07:57:43.138Z,1016.22
2019-05-30T07:58:43.106Z,1016.22
2019-05-30T07:59:43.086Z,1016.24
2019-05-30T08:00:43.065Z,1016.24
2019-05-30T08:01:43.071Z,1016.27
2019-05-30T08:02:43.025Z,1016.25
2019-05-30T08:03:43.025Z,1016.28
2019-05-30T08:04:46.627Z,1016.29
2019-05-30T08:05:42.971Z,1016.21
2019-05-30T08:06:42.954Z,1016.20
2019-05-30T08:07:42.932Z,1016.25
2019-05-30T08:08:42.914Z,1016.23
2019-05-30T08:09:42.902Z,1016.26
2019-05-30T08:10:42.877Z,1016.28
2019-05-30T08:11:42.880Z,1016.21
2019-05-30T08:12:42.837Z,1016.26
2019-05-30T08:13:42.819Z,1016.28
2019-05-30T08:14:42.803Z,1016.28
2019-05-30T08:15:43.999Z,1016.21
2019-05-30T08:16:42.762Z,1016.33
2019-05-30T08:17:44.409Z,1016.25
2019-05-30T08:18:42.728Z,1016.30
2019-05-30T08:19:42.716Z,1016.37
2019-05-30T08:20:42.705Z,1016.31
2019-05-30T08:21:42.669Z,1016.30
2019-05-30T08:22:42.647Z,1016.35
2019-05-30T08:23:42.639Z,1016.34
2019-05-30T08:24:42.620Z,1016.34
2019-05-30T08:25:42.592Z,1016.33
2019-05-30T08:26:42.582Z,1016.32
2019-05-30T08:27:42.560Z,1016.35
2019-05-30T08:28:42.834Z,1016.30
2019-05-30T08:29:42.520Z,1016.33
2019-05-30T08:30:42.499Z,1016.31
2019-05-30T08:31:42.475Z,1016.33
2019-05-30T08:32:42.457Z,1016.38
2019-05-30T08:33:42.442Z,1016.37
2019-05-30T08:34:42.426Z,1016.31
2019-05-30T08:35:49.605Z,1016.38
2019-05-30T08:36:42.386Z,1016.40
2019-05-30T08:37:42.368Z,1016.33
2019-05-30T08:38:42.343Z,1016.32
2019-05-30T08:39:42.320Z,1016.39
2019-05-30T08:40:42.304Z,1016.36
2019-05-30T08:41:42.281Z,1016.33
2019-05-30T08:42:42.261Z,1016.29
2019-05-30T08:43:42.250Z,1016.39
2019-05-30T08:44:42.231Z,1016.31
2019-05-30T08:45:42.216Z,1016.33
2019-05-30T08:46:42.198Z,1016.31
2019-05-30T08:47:42.173Z,1016.32
2019-05-30T08:48:42.165Z,1016.25
2019-05-30T08:49:42.131Z,1016.26
2019-05-30T08:50:44.616Z,1016.25
2019-05-30T08:51:42.105Z,1016.30
2019-05-30T08:52:42.073Z,1016.29
2019-05-30T08:53:42.056Z,1016.35
2019-05-30T08:54:42.043Z,1016.29
2019-05-30T08:55:42.028Z,1016.26
2019-05-30T08:56:42.018Z,1016.27
2019-05-30T08:57:42.004Z,1016.33
2019-05-30T08:58:41.957Z,1016.30
2019-05-30T08:59:44.781Z,1016.31
2019-05-30T09:00:41.931Z,1016.27
2019-05-30T09:01:42.226Z,1016.29
2019-05-30T09:02:42.889Z,1016.29
2019-05-30T09:03:42.182Z,1016.26
2019-05-30T09:04:42.015Z,1016.22
2019-05-30T09:05:58.188Z,1016.27
2019-05-30T09:06:42.085Z,1016.28
2019-05-30T09:07:42.923Z,1016.27
2019-05-30T09:08:42.149Z,1016.31
2019-05-30T09:09:42.246Z,1016.31
2019-05-30T09:10:42.630Z,1016.24
2019-05-30T09:11:42.351Z,1016.25
2019-05-30T09:12:45.197Z,1016.26
2019-05-30T09:13:42.630Z,1016.25
2019-05-30T09:14:42.859Z,1016.28
2019-05-30T09:15:42.896Z,1016.32
2019-05-30T09:16:41.626Z,1016.29
2019-05-30T09:17:42.582Z,1016.36
2019-05-30T09:18:41.667Z,1016.37
2019-05-30T09:19:41.568Z,1016.35
2019-05-30T09:20:42.023Z,1016.38
2019-05-30T09:21:41.552Z,1016.37
2019-05-30T09:22:41.946Z,1016.40
2019-05-30T09:23:42.242Z,1016.37
2019-05-30T09:24:42.104Z,1016.38
2019-05-30T09:25:41.607Z,1016.36
2019-05-30T09:26:45.231Z,1016.37
2019-05-30T09:27:42.777Z,1016.38
2019-05-30T09:28:42.218Z,1016.40
2019-05-30T09:29:42.740Z,1016.34
2019-05-30T09:30:42.795Z,1016.33
2019-05-30T09:31:42.735Z,1016.35
2019-05-30T09:32:43.012Z,1016.33
2019-05-30T09:33:42.640Z,1016.33
2019-05-30T09:34:42.053Z,1016.33
2019-05-30T09:35:41.526Z,1016.37
2019-05-30T09:36:41.245Z,1016.39
2019-05-30T09:37:41.882Z,1016.36
2019-05-30T09:38:41.795Z,1016.40
2019-05-30T09:39:41.543Z,1016.35
2019-05-30T09:40:42.079Z,1016.36
2019-05-30T09:41:42.187Z,1016.48
2019-05-30T09:42:42.640Z,1016.45
2019-05-30T09:43:42.552Z,1016.44
2019-05-30T09:44:42.230Z,1016.53
2019-05-30T09:45:42.299Z,1016.51
2019-05-30T09:46:42.476Z,1016.52
2019-05-30T09:47:43.016Z,1016.51
2019-05-30T09:48:42.045Z,1016.55
2019-05-30T09:49:41.888Z,1016.54
2019-05-30T09:50:42.199Z,1016.53
2019-05-30T09:51:42.534Z,1016.56
2019-05-30T09:52:42.179Z,1016.59
2019-05-30T09:53:41.061Z,1016.65
2019-05-30T09:54:41.167Z,1016.65
2019-05-30T09:55:41.322Z,1016.59
2019-05-30T09:56:42.037Z,1016.66
2019-05-30T09:57:42.334Z,1016.65
2019-05-30T09:58:42.215Z,1016.63
2019-05-30T09:59:41.586Z,1016.61
2019-05-30T10:00:42.829Z,1016.66
2019-05-30T10:01:42.605Z,1016.69
2019-05-30T10:02:42.955Z,1016.66
2019-05-30T10:03:43.034Z,1016.69
2019-05-30T10:04:42.066Z,1016.72
2019-05-30T10:05:40.677Z,1016.71
2019-05-30T10:06:40.657Z,1016.77
2019-05-30T10:07:40.640Z,1016.68
2019-05-30T10:08:40.618Z,1016.66
2019-05-30T10:09:40.599Z,1016.69
2019-05-30T10:10:40.580Z,1016.66
2019-05-30T10:11:40.568Z,1016.60
2019-05-30T10:12:40.542Z,1016.63
2019-05-30T10:13:40.538Z,1016.69
2019-05-30T10:14:40.503Z,1016.68
2019-05-30T10:15:40.497Z,1016.63
2019-05-30T10:16:40.479Z,1016.64
2019-05-30T10:17:40.459Z,1016.62
2019-05-30T10:18:40.432Z,1016.61
2019-05-30T10:19:40.416Z,1016.62
2019-05-30T10:20:40.393Z,1016.57
2019-05-30T10:21:40.372Z,1016.54
2019-05-30T10:22:40.361Z,1016.56
2019-05-30T10:23:40.337Z,1016.51
2019-05-30T10:24:43.000Z,1016.53
2019-05-30T10:25:40.299Z,1016.58
2019-05-30T10:26:40.278Z,1016.57
2019-05-30T10:27:40.271Z,1016.57
2019-05-30T10:28:40.239Z,1016.61
2019-05-30T10:29:40.222Z,1016.59
2019-05-30T10:30:40.205Z,1016.62
2019-05-30T10:31:40.194Z,1016.66
2019-05-30T10:32:40.173Z,1016.65
2019-05-30T10:33:40.161Z,1016.64
2019-05-30T10:34:40.126Z,1016.62
2019-05-30T10:35:40.120Z,1016.65
2019-05-30T10:36:44.224Z,1016.63
2019-05-30T10:37:40.067Z,1016.67
2019-05-30T10:38:40.057Z,1016.67
2019-05-30T10:39:40.039Z,1016.61
2019-05-30T10:40:40.014Z,1016.64
2019-05-30T10:41:39.993Z,1016.66
2019-05-30T10:42:39.972Z,1016.63
2019-05-30T10:43:39.949Z,1016.62
2019-05-30T10:44:39.947Z,1016.66
2019-05-30T10:45:39.917Z,1016.67
2019-05-30T10:46:39.893Z,1016.68
2019-05-30T10:47:39.878Z,1016.65
2019-05-30T10:48:39.868Z,1016.68
2019-05-30T10:49:39.851Z,1016.68
2019-05-30T10:50:39.818Z,1016.66
2019-05-30T10:51:39.821Z,1016.73
2019-05-30T10:52:39.785Z,1016.70
2019-05-30T10:53:39.775Z,1016.70
2019-05-30T10:54:39.749Z,1016.73
2019-05-30T10:55:39.725Z,1016.70
2019-05-30T10:56:39.709Z,1016.70
2019-05-30T10:57:39.696Z,1016.71
2019-05-30T10:58:39.673Z,1016.71
2019-05-30T10:59:39.653Z,1016.73
2019-05-30T11:00:39.638Z,1016.72
2019-05-30T11:01:39.632Z,1016.73
2019-05-30T11:02:39.605Z,1016.73
2019-05-30T11:03:39.576Z,1016.76
2019-05-30T11:04:39.563Z,1016.79
2019-05-30T11:05:39.546Z,1016.74
2019-05-30T11:06:39.522Z,1016.78
2019-05-30T11:07:53.036Z,1016.81
2019-05-30T11:08:39.485Z,1016.78
2019-05-30T11:09:39.470Z,1016.84
2019-05-30T11:10:39.454Z,1016.86
2019-05-30T11:11:39.434Z,1016.86
2019-05-30T11:12:39.416Z,1016.86
2019-05-30T11:13:39.408Z,1016.86
2019-05-30T11:14:39.374Z,1016.88
2019-05-30T11:15:39.350Z,1016.88
2019-05-30T11:16:39.332Z,1016.88
2019-05-30T11:17:39.316Z,1016.91
2019-05-30T11:18:39.332Z,1016.92
2019-05-30T11:19:39.277Z,1016.85
2019-05-30T11:20:39.260Z,1016.88
2019-05-30T11:21:39.243Z,1016.88
2019-05-30T11:22:39.231Z,1016.87
2019-05-30T11:23:39.201Z,1016.91
2019-05-30T11:24:39.187Z,1016.95
2019-05-30T11:25:39.168Z,1016.87
2019-05-30T11:26:39.150Z,1016.93
2019-05-30T11:27:39.129Z,1016.91
2019-05-30T11:28:39.163Z,1016.88
2019-05-30T11:29:39.096Z,1016.97
2019-05-30T11:30:39.075Z,1016.95
2019-05-30T11:31:39.055Z,1016.92
2019-05-30T11:32:39.039Z,1016.94
2019-05-30T11:33:39.030Z,1016.99
2019-05-30T11:34:39.012Z,1016.96
2019-05-30T11:35:38.979Z,1016.98
2019-05-30T11:36:38.966Z,1017.02
2019-05-30T11:37:38.946Z,1017.03
2019-05-30T11:38:38.921Z,1016.99
2019-05-30T11:39:38.914Z,1017.02
2019-05-30T11:40:38.908Z,1017.07
2019-05-30T11:41:38.868Z,1017.01
2019-05-30T11:42:38.859Z,1017.02
2019-05-30T11:43:38.833Z,1017.01
2019-05-30T11:44:38.817Z,1016.97
2019-05-30T11:45:38.792Z,1017.01
2019-05-30T11:46:38.780Z,1017.01
2019-05-30T11:47:38.757Z,1017.06
2019-05-30T11:48:38.736Z,1017.05
2019-05-30T11:49:38.742Z,1017.10
2019-05-30T11:50:38.702Z,1017.06
2019-05-30T11:51:38.687Z,1017.02
2019-05-30T11:52:38.663Z,1017.13
2019-05-30T11:53:38.645Z,1017.01
2019-05-30T11:54:38.630Z,1017.03
2019-05-30T11:55:38.616Z,1017.01
2019-05-30T11:56:38.585Z,1017.05
2019-05-30T11:57:38.565Z,1017.07
2019-05-30T11:58:38.548Z,1017.06
2019-05-30T11:59:38.530Z,1017.01
2019-05-30T12:00:38.511Z,1017.06
2019-05-30T12:01:38.498Z,1017.09
2019-05-30T12:02:38.473Z,1017.05
2019-05-30T12:03:38.454Z,1017.01
2019-05-30T12:04:38.451Z,1017.05